Time;durP1;ratioP1;P1;durP2;ratioP2;P2;SDS_P1;SDS_P2;PMS_P1;PMS_P2;Temp;Humidity;BMP_temperature;BMP_pressure;BME280_temperature;BME280_humidity;BME280_pressure;Samples;Min_cycle;Max_cycle;Signal;HPM_P1;HPM_P2
2023/02/11 00:00:12;;;;;;;3.35;0.57;;;;;;;12.18;100.00;101527.38;7397376;19;20022;-85
2023/02/11 00:02:38;;;;;;;0.93;0.70;;;;;;;10.89;100.00;101520.66;7393271;19;20026;-85
2023/02/11 00:05:05;;;;;;;0.70;0.47;;;;;;;11.44;100.00;101525.94;7395123;19;20086;-86
2023/02/11 00:07:32;;;;;;;0.28;0.28;;;;;;;11.82;100.00;101518.50;7396780;19;20026;-85
2023/02/11 00:09:58;;;;;;;1.23;0.35;;;;;;;10.77;100.00;101518.56;7397828;19;20011;-85
2023/02/11 00:12:25;;;;;;;1.10;0.93;;;;;;;12.19;100.00;101517.00;7397983;19;20142;-86
2023/02/11 00:14:51;;;;;;;0.38;0.30;;;;;;;11.51;100.00;101509.00;7396499;19;20018;-86
2023/02/11 00:17:17;;;;;;;4.05;0.38;;;;;;;10.72;100.00;101519.13;7393415;19;20014;-87
2023/02/11 00:19:43;;;;;;;0.57;0.35;;;;;;;10.52;100.00;101506.06;7396493;19;20047;-84
2023/02/11 00:22:09;;;;;;;0.73;0.73;;;;;;;11.28;100.00;101500.91;7395067;19;20053;-86
2023/02/11 00:24:35;;;;;;;1.00;0.55;;;;;;;10.68;100.00;101508.84;7393381;19;20078;-85
2023/02/11 00:27:02;;;;;;;0.47;0.47;;;;;;;10.97;100.00;101514.47;7393522;19;20011;-86
2023/02/11 00:29:28;;;;;;;1.13;0.73;;;;;;;10.44;100.00;101509.44;7394740;19;20390;-85
2023/02/11 00:31:55;;;;;;;1.55;0.73;;;;;;;10.73;100.00;101515.09;7393079;19;20098;-86
2023/02/11 00:34:23;;;;;;;0.82;0.52;;;;;;;10.90;100.00;101519.44;7394222;19;20018;-86
2023/02/11 00:36:50;;;;;;;0.60;0.35;;;;;;;10.80;100.00;101521.28;7394985;19;20015;-85
2023/02/11 00:39:16;;;;;;;2.25;0.63;;;;;;;10.47;100.00;101525.28;7394780;19;20011;-86
2023/02/11 00:41:43;;;;;;;1.05;0.65;;;;;;;10.42;100.00;101520.22;7395299;19;20035;-87
2023/02/11 00:44:09;;;;;;;1.50;0.60;;;;;;;10.61;100.00;101522.94;7394222;19;20014;-86
2023/02/11 00:46:35;;;;;;;0.88;0.50;;;;;;;10.62;100.00;101521.72;7395349;19;20026;-87
2023/02/11 00:49:02;;;;;;;0.20;0.20;;;;;;;10.55;100.00;101524.69;7393422;19;20015;-86
2023/02/11 00:51:28;;;;;;;0.40;0.40;;;;;;;10.57;100.00;101524.22;7394318;19;20026;-85
2023/02/11 00:53:55;;;;;;;0.47;0.28;;;;;;;11.09;100.00;101521.31;7390536;19;20023;-86
2023/02/11 00:56:22;;;;;;;0.95;0.55;;;;;;;11.15;100.00;101517.56;7393843;19;21013;-86
2023/02/11 00:58:49;;;;;;;3.53;0.63;;;;;;;11.82;100.00;101521.31;7392481;19;20469;-85
2023/02/11 01:01:16;;;;;;;0.20;0.20;;;;;;;11.42;100.00;101518.03;7395111;19;20377;-86
2023/02/11 01:03:42;;;;;;;19.40;0.80;;;;;;;10.70;100.00;101519.53;7389825;19;20372;-86
2023/02/11 01:06:09;;;;;;;0.80;0.47;;;;;;;10.62;100.00;101524.50;7392008;19;20014;-85
2023/02/11 01:08:38;;;;;;;0.70;0.35;;;;;;;10.58;100.00;101525.81;7394070;19;20011;-88
2023/02/11 01:11:10;;;;;;;5.25;0.85;;;;;;;10.35;100.00;101531.56;7394148;19;20011;-83
2023/02/11 01:13:37;;;;;;;0.93;0.43;;;;;;;10.27;100.00;101542.06;7389300;19;20362;-83
2023/02/11 01:16:06;;;;;;;0.28;0.28;;;;;;;10.22;100.00;101537.00;7390642;19;20484;-86
2023/02/11 01:18:32;;;;;;;1.10;0.10;;;;;;;10.48;100.00;101540.78;7391449;19;20374;-88
2023/02/11 01:20:58;;;;;;;1.55;0.95;;;;;;;10.77;100.00;101533.28;7395122;19;20038;-87
2023/02/11 01:23:25;;;;;;;0.77;0.47;;;;;;;10.62;100.00;101527.31;7390284;19;20030;-88
2023/02/11 01:25:53;;;;;;;4.18;1.27;;;;;;;10.30;100.00;101521.72;7391203;19;20022;-86
2023/02/11 01:28:22;;;;;;;0.52;0.52;;;;;;;10.62;100.00;101516.16;7393411;19;20014;-87
2023/02/11 01:30:49;;;;;;;1.75;0.65;;;;;;;10.84;100.00;101507.25;7396863;19;20043;-87
2023/02/11 01:33:15;;;;;;;0.50;0.50;;;;;;;11.49;100.00;101513.47;7391908;19;20348;-86
2023/02/11 01:35:43;;;;;;;0.35;0.35;;;;;;;11.80;100.00;101515.34;7390456;19;20403;-87
2023/02/11 01:38:20;;;;;;;0.90;0.63;;;;;;;11.17;100.00;101522.72;7392460;19;20107;-87
2023/02/11 01:41:08;;;;;;;0.20;0.20;;;;;;;11.85;100.00;101533.56;7393491;19;20661;-87
2023/02/11 01:43:39;;;;;;;2.05;0.43;;;;;;;11.53;100.00;101539.25;7390767;19;20018;-87
2023/02/11 01:46:34;;;;;;;1.03;0.37;;;;;;;11.56;100.00;101544.75;7390978;19;20492;-87
2023/02/11 01:49:02;;;;;;;7.22;1.05;;;;;;;11.65;100.00;101546.91;7391503;19;20778;-87
2023/02/11 01:51:35;;;;;;;0.88;0.40;;;;;;;11.92;100.00;101544.53;7391885;19;20038;-84
2023/02/11 02:00:01;;;;;;;0.30;0.30;;;;;;;12.22;100.00;101538.41;7393340;19;20431;-83
2023/02/11 02:02:41;;;;;;;4.15;0.52;;;;;;;12.17;100.00;101533.41;7390394;19;20021;-83
2023/02/11 02:05:34;;;;;;;0.30;0.30;;;;;;;12.14;100.00;101535.09;7388632;19;20014;-83
2023/02/11 02:08:34;;;;;;;0.40;0.20;;;;;;;12.23;100.00;101525.25;7392088;19;20010;-82
2023/02/11 02:11:02;;;;;;;1.37;0.90;;;;;;;12.25;100.00;101539.53;7393249;19;20086;-82
2023/02/11 02:13:31;;;;;;;2.20;0.30;;;;;;;11.61;100.00;101535.81;7387533;19;20010;-82
2023/02/11 02:16:01;;;;;;;0.10;0.10;;;;;;;11.54;100.00;101541.63;7390971;19;20019;-82
2023/02/11 02:19:04;;;;;;;0.35;0.10;;;;;;;12.06;100.00;101550.47;7389721;19;20015;-82
2023/02/11 02:21:48;;;;;;;0.63;0.43;;;;;;;11.34;100.00;101540.97;7392157;19;20022;-82
2023/02/11 02:24:41;;;;;;;1.45;0.17;;;;;;;11.19;100.00;101540.56;7388225;19;20029;-82
2023/02/11 02:27:16;;;;;;;0.10;0.10;;;;;;;11.38;100.00;101533.28;7386747;19;20022;-82
2023/02/11 02:30:15;;;;;;;0.10;0.10;;;;;;;11.27;100.00;101532.78;7389980;19;20078;-82
2023/02/11 02:33:14;;;;;;;0.10;0.10;;;;;;;12.26;100.00;101538.34;7388890;19;20018;-82
2023/02/11 02:36:08;;;;;;;10.52;0.30;;;;;;;11.18;100.00;101535.41;7390606;19;20019;-82
2023/02/11 02:38:47;;;;;;;0.20;0.20;;;;;;;10.36;100.00;101542.25;7390195;19;20018;-82
2023/02/11 02:41:21;;;;;;;0.10;0.10;;;;;;;15.04;100.00;101542.09;7394867;19;20023;-82
2023/02/11 02:43:48;;;;;;;0.10;0.10;;;;;;;26.16;74.34;101534.25;7387239;19;20025;-82
2023/02/11 02:46:20;;;;;;;1.27;0.60;;;;;;;12.53;100.00;101558.22;7388831;19;20018;-82
2023/02/11 02:48:48;;;;;;;1.33;0.30;;;;;;;13.60;100.00;101552.16;7388580;19;20019;-82
2023/02/11 02:51:24;;;;;;;0.52;0.47;;;;;;;24.33;74.61;101538.56;7392725;19;20524;-83
2023/02/11 02:53:58;;;;;;;3.05;0.50;;;;;;;27.42;58.50;101527.44;7386668;19;20363;-82
2023/02/11 02:57:06;;;;;;;1.23;0.43;;;;;;;25.64;58.94;101534.00;7390213;19;20023;-82
2023/02/11 02:59:41;;;;;;;1.40;0.90;;;;;;;22.14;85.66;101538.38;7386794;19;20018;-82
2023/02/11 03:02:19;;;;;;;2.60;0.88;;;;;;;16.62;86.05;101556.56;7388243;19;20033;-82
2023/02/11 03:04:57;;;;;;;5.30;0.60;;;;;;;23.22;67.63;101545.69;7388087;19;20003;-83
2023/02/11 03:07:43;;;;;;;6.75;1.23;;;;;;;20.48;77.30;101546.22;7388989;19;20007;-82
2023/02/11 03:10:30;;;;;;;1.27;0.57;;;;;;;27.96;55.93;101546.75;7391604;19;20086;-82
2023/02/11 03:12:56;;;;;;;0.30;0.25;;;;;;;27.50;52.87;101539.00;7391712;19;20030;-82
2023/02/11 03:15:27;;;;;;;0.95;0.50;;;;;;;24.15;57.22;101531.47;7389709;19;20047;-83
2023/02/11 03:17:59;;;;;;;0.52;0.52;;;;;;;21.63;56.67;101533.13;7389617;19;20021;-82
2023/02/11 03:20:29;;;;;;;0.63;0.30;;;;;;;16.32;100.00;101535.88;7392174;19;20030;-82
2023/02/11 03:23:07;;;;;;;0.85;0.65;;;;;;;27.35;56.60;101510.16;7390216;19;20465;-83
2023/02/11 03:25:37;;;;;;;1.40;1.25;;;;;;;15.40;93.25;101530.13;7393534;19;20011;-82
2023/02/11 03:28:13;;;;;;;2.20;0.40;;;;;;;14.37;100.00;101516.81;7397241;19;20022;-83
2023/02/11 03:30:48;;;;;;;1.55;0.63;;;;;;;13.31;100.00;101531.25;7400779;19;20039;-83
2023/02/11 03:33:32;;;;;;;0.60;0.43;;;;;;;12.45;100.00;101531.72;7394984;19;20020;-83
2023/02/11 03:36:07;;;;;;;0.40;0.40;;;;;;;12.06;100.00;101536.50;7396929;19;20492;-82
2023/02/11 03:38:41;;;;;;;11.93;1.20;;;;;;;12.88;100.00;101538.28;7396032;19;20014;-82
2023/02/11 03:41:09;;;;;;;3.60;0.47;;;;;;;16.11;100.00;101528.47;7396111;19;20457;-82
2023/02/11 03:43:46;;;;;;;0.45;0.30;;;;;;;12.31;100.00;101532.16;7397758;19;20014;-82
2023/02/11 03:46:16;;;;;;;1.20;0.47;;;;;;;14.22;100.00;101539.00;7395059;19;20035;-82
2023/02/11 03:48:53;;;;;;;1.48;0.70;;;;;;;12.54;100.00;101526.25;7395896;19;20039;-83
2023/02/11 03:51:21;;;;;;;2.25;1.05;;;;;;;12.63;100.00;101540.31;7397638;19;20014;-83
2023/02/11 03:53:53;;;;;;;0.20;0.17;;;;;;;12.22;100.00;101523.66;7391004;19;20015;-83
2023/02/11 03:56:25;;;;;;;0.43;0.35;;;;;;;12.15;100.00;101521.88;7395869;19;20405;-82
2023/02/11 03:58:51;;;;;;;0.10;0.10;;;;;;;12.06;100.00;101525.34;7398300;19;20022;-82
2023/02/11 04:01:17;;;;;;;0.10;0.10;;;;;;;11.76;100.00;101520.25;7400142;19;20440;-83
2023/02/11 04:03:43;;;;;;;0.52;0.38;;;;;;;12.09;100.00;101521.66;7393161;19;20010;-82
2023/02/11 04:06:10;;;;;;;0.40;0.40;;;;;;;11.91;100.00;101521.41;7393365;19;20376;-82
2023/02/11 04:08:36;;;;;;;0.28;0.28;;;;;;;12.33;100.00;101532.50;7395619;19;20025;-83
2023/02/11 04:11:02;;;;;;;0.52;0.35;;;;;;;14.67;100.00;101527.22;7399113;19;20019;-82
2023/02/11 04:13:29;;;;;;;3.05;0.55;;;;;;;13.52;100.00;101541.66;7393330;19;20386;-82
2023/02/11 04:15:55;;;;;;;0.10;0.10;;;;;;;13.31;100.00;101542.44;7394384;19;20018;-82
2023/02/11 04:18:21;;;;;;;0.82;0.35;;;;;;;12.05;100.00;101542.53;7393044;19;20025;-83
2023/02/11 04:20:49;;;;;;;0.45;0.10;;;;;;;11.84;100.00;101545.97;7397554;19;20090;-83
2023/02/11 04:23:15;;;;;;;0.28;0.28;;;;;;;11.90;100.00;101558.94;7393086;19;20018;-83
2023/02/11 04:25:42;;;;;;;2.95;0.45;;;;;;;12.29;100.00;101562.56;7390529;19;20010;-82
2023/02/11 04:28:08;;;;;;;0.20;0.20;;;;;;;12.14;100.00;101553.84;7393863;19;20019;-83
2023/02/11 04:30:35;;;;;;;0.80;0.10;;;;;;;12.30;100.00;101547.38;7396026;19;20018;-82
2023/02/11 04:33:01;;;;;;;3.03;0.82;;;;;;;12.33;100.00;101557.66;7389799;19;20014;-83
2023/02/11 04:35:27;;;;;;;0.63;0.28;;;;;;;12.30;100.00;101564.16;7396090;19;20023;-82
2023/02/11 04:37:53;;;;;;;0.10;0.10;;;;;;;12.26;100.00;101572.63;7394605;19;20031;-82
2023/02/11 04:40:19;;;;;;;0.10;0.10;;;;;;;12.52;100.00;101576.19;7394478;19;20022;-82
2023/02/11 04:42:45;;;;;;;0.20;0.20;;;;;;;12.94;100.00;101574.84;7393315;19;20458;-82
2023/02/11 04:45:12;;;;;;;0.43;0.43;;;;;;;20.98;96.75;101566.34;7391495;19;20028;-83
2023/02/11 04:47:38;;;;;;;0.15;0.10;;;;;;;14.25;100.00;101577.31;7392307;19;20025;-83
2023/02/11 04:50:04;;;;;;;0.10;0.10;;;;;;;12.95;100.00;101579.19;7395263;19;20493;-83
2023/02/11 04:52:30;;;;;;;0.38;0.30;;;;;;;14.59;100.00;101584.81;7391517;19;20026;-83
2023/02/11 04:54:56;;;;;;;0.47;0.25;;;;;;;13.82;100.00;101587.78;7394066;19;20014;-83
2023/02/11 04:57:22;;;;;;;0.63;0.35;;;;;;;13.22;100.00;101595.50;7394626;19;20022;-83
2023/02/11 04:59:49;;;;;;;0.38;0.38;;;;;;;13.32;100.00;101606.31;7395017;19;20039;-83
2023/02/11 05:02:15;;;;;;;0.10;0.10;;;;;;;13.08;100.00;101601.59;7393145;19;20022;-82
2023/02/11 05:04:41;;;;;;;0.10;0.10;;;;;;;13.11;100.00;101604.25;7391125;19;20403;-83
2023/02/11 05:07:07;;;;;;;0.10;0.10;;;;;;;12.62;100.00;101606.63;7392423;19;20078;-81
2023/02/11 05:09:33;;;;;;;0.10;0.10;;;;;;;12.33;100.00;101597.53;7391310;19;20011;-83
2023/02/11 05:11:59;;;;;;;0.35;0.32;;;;;;;12.22;100.00;101596.28;7395801;19;20014;-83
2023/02/11 05:14:25;;;;;;;0.10;0.03;;;;;;;12.19;100.00;101598.75;7395625;19;20010;-83
2023/02/11 05:16:51;;;;;;;0.20;0.10;;;;;;;12.51;100.00;101602.59;7392689;19;20041;-83
2023/02/11 05:19:18;;;;;;;0.32;0.20;;;;;;;12.62;100.00;101608.63;7391644;19;20011;-82
2023/02/11 05:21:44;;;;;;;0.10;0.10;;;;;;;12.36;100.00;101607.06;7392012;19;20040;-82
2023/02/11 05:24:10;;;;;;;0.10;0.00;;;;;;;12.28;100.00;101612.06;7393636;19;20406;-82
2023/02/11 05:26:36;;;;;;;0.10;0.10;;;;;;;12.21;100.00;101615.09;7393637;19;20022;-82
2023/02/11 05:29:02;;;;;;;0.10;0.10;;;;;;;12.14;100.00;101624.44;7390306;19;20034;-82
2023/02/11 05:31:28;;;;;;;0.55;0.10;;;;;;;12.77;100.00;101618.13;7390349;19;20055;-82
2023/02/11 05:33:54;;;;;;;0.75;0.43;;;;;;;13.29;100.00;101624.03;7390781;19;20021;-83
2023/02/11 05:36:21;;;;;;;0.10;0.10;;;;;;;12.76;100.00;101630.53;7395411;19;20014;-82
2023/02/11 05:38:47;;;;;;;0.45;0.30;;;;;;;12.42;100.00;101624.81;7391272;19;20469;-82
2023/02/11 05:41:13;;;;;;;1.40;0.47;;;;;;;12.29;100.00;101621.22;7394020;19;20018;-83
2023/02/11 05:43:39;;;;;;;0.10;0.10;;;;;;;12.24;100.00;101618.97;7389500;19;20014;-82
2023/02/11 05:46:05;;;;;;;0.17;0.10;;;;;;;12.23;100.00;101634.97;7386918;19;20565;-83
2023/02/11 05:48:32;;;;;;;0.10;0.10;;;;;;;13.21;100.00;101636.69;7391373;19;20039;-82
2023/02/11 05:50:58;;;;;;;0.10;0.10;;;;;;;13.45;100.00;101646.25;7395449;19;20025;-82
2023/02/11 05:53:24;;;;;;;0.22;0.10;;;;;;;13.07;100.00;101647.56;7390395;19;20085;-83
2023/02/11 05:55:51;;;;;;;0.57;0.43;;;;;;;12.80;100.00;101636.81;7391048;19;20049;-82
2023/02/11 05:58:17;;;;;;;7.03;0.43;;;;;;;12.93;100.00;101634.78;7392295;19;20019;-82
2023/02/11 06:00:43;;;;;;;0.20;0.20;;;;;;;13.93;100.00;101638.56;7395315;19;20345;-82
2023/02/11 06:03:09;;;;;;;0.10;0.10;;;;;;;14.78;100.00;101641.75;7390405;19;20524;-82
2023/02/11 06:05:35;;;;;;;0.10;0.10;;;;;;;15.45;100.00;101645.41;7390537;19;20022;-82
2023/02/11 06:08:01;;;;;;;1.27;0.25;;;;;;;14.80;100.00;101645.66;7391589;19;20074;-82
2023/02/11 06:10:27;;;;;;;0.15;0.10;;;;;;;13.92;100.00;101643.41;7394481;19;20081;-82
2023/02/11 06:12:54;;;;;;;0.32;0.20;;;;;;;15.03;100.00;101642.31;7393232;19;20035;-82
2023/02/11 06:15:20;;;;;;;4.20;0.55;;;;;;;13.87;100.00;101643.19;7389399;19;20014;-87
2023/02/11 06:17:46;;;;;;;0.13;0.10;;;;;;;14.67;100.00;101636.56;7389970;19;20025;-87
2023/02/11 06:20:12;;;;;;;0.10;0.10;;;;;;;14.39;100.00;101638.47;7393976;19;20015;-87
2023/02/11 06:22:38;;;;;;;0.10;0.10;;;;;;;13.36;100.00;101639.81;7390190;19;20022;-86
2023/02/11 06:25:05;;;;;;;1.15;0.10;;;;;;;13.02;100.00;101637.69;7389841;19;20514;-86
2023/02/11 06:27:31;;;;;;;0.30;0.30;;;;;;;13.19;100.00;101641.94;7390662;19;20078;-88
2023/02/11 06:29:57;;;;;;;1.33;0.68;;;;;;;13.79;100.00;101644.69;7394729;19;20520;-87
2023/02/11 06:32:25;;;;;;;1.75;0.65;;;;;;;13.61;100.00;101650.91;7389038;19;20018;-86
2023/02/11 06:34:51;;;;;;;0.20;0.20;;;;;;;13.96;100.00;101652.47;7391766;19;20022;-86
2023/02/11 06:37:17;;;;;;;0.30;0.10;;;;;;;14.86;100.00;101657.84;7391106;19;20022;-86
2023/02/11 06:39:44;;;;;;;0.10;0.10;;;;;;;13.47;100.00;101654.22;7391849;19;20355;-86
2023/02/11 06:42:10;;;;;;;0.10;0.10;;;;;;;13.19;100.00;101658.72;7393401;19;20113;-86
2023/02/11 06:44:36;;;;;;;0.35;0.28;;;;;;;12.90;100.00;101653.25;7389542;19;20007;-86
2023/02/11 06:47:03;;;;;;;0.10;0.10;;;;;;;13.13;100.00;101654.94;7390930;19;20014;-87
2023/02/11 06:49:29;;;;;;;0.10;0.10;;;;;;;13.14;100.00;101656.50;7391758;19;20019;-86
2023/02/11 06:51:55;;;;;;;0.10;0.10;;;;;;;13.48;100.00;101664.97;7390884;19;20006;-87
2023/02/11 06:54:21;;;;;;;14.80;0.45;;;;;;;13.73;100.00;101671.72;7389088;19;20023;-87
2023/02/11 06:56:47;;;;;;;0.10;0.10;;;;;;;13.41;100.00;101670.78;7393786;19;20057;-87
2023/02/11 06:59:19;;;;;;;0.35;0.17;;;;;;;14.25;100.00;101674.63;7397234;19;20032;-87
2023/02/11 07:01:45;;;;;;;0.10;0.10;;;;;;;13.40;100.00;101676.84;7399444;19;20019;-86
2023/02/11 07:04:13;;;;;;;0.10;0.10;;;;;;;13.20;100.00;101677.09;7397490;19;20018;-87
2023/02/11 07:06:40;;;;;;;0.35;0.20;;;;;;;13.37;100.00;101680.53;7396677;19;20035;-87
2023/02/11 07:09:07;;;;;;;0.73;0.20;;;;;;;13.19;100.00;101691.53;7397265;19;20022;-87
2023/02/11 07:11:33;;;;;;;0.20;0.20;;;;;;;14.20;100.00;101680.81;7398784;19;20346;-86
2023/02/11 07:14:05;;;;;;;0.10;0.10;;;;;;;13.73;100.00;101685.72;7395003;19;20077;-86
2023/02/11 07:16:32;;;;;;;0.10;0.05;;;;;;;13.08;100.00;101694.66;7395615;19;20063;-85
2023/02/11 07:18:58;;;;;;;0.35;0.30;;;;;;;13.05;100.00;101681.59;7398276;19;20353;-86
2023/02/11 07:21:24;;;;;;;0.63;0.63;;;;;;;12.89;100.00;101681.66;7400482;19;20081;-85
2023/02/11 07:23:51;;;;;;;0.10;0.08;;;;;;;12.80;100.00;101687.13;7398330;19;20022;-86
2023/02/11 07:26:24;;;;;;;0.20;0.20;;;;;;;13.19;100.00;101683.91;7398778;19;20022;-85
2023/02/11 07:28:51;;;;;;;0.10;0.10;;;;;;;13.31;100.00;101688.72;7401142;19;20066;-85
2023/02/11 07:31:20;;;;;;;0.10;0.00;;;;;;;13.35;100.00;101689.38;7401137;19;20006;-86
2023/02/11 07:33:47;;;;;;;0.63;0.30;;;;;;;13.38;100.00;101694.06;7394792;19;20026;-86
2023/02/11 07:36:15;;;;;;;0.43;0.10;;;;;;;13.15;100.00;101680.44;7400632;19;20022;-86
2023/02/11 07:38:42;;;;;;;1.33;0.80;;;;;;;13.30;100.00;101681.56;7396378;19;20038;-86
2023/02/11 07:41:10;;;;;;;0.45;0.22;;;;;;;14.24;100.00;101687.84;7400832;19;20035;-86
2023/02/11 07:43:37;;;;;;;0.10;0.10;;;;;;;14.15;100.00;101684.19;7394585;19;20022;-86
2023/02/11 07:46:06;;;;;;;1.00;0.30;;;;;;;13.51;100.00;101706.03;7394446;19;20014;-86
2023/02/11 07:48:32;;;;;;;0.10;0.10;;;;;;;15.09;100.00;101701.44;7397028;19;20017;-86
2023/02/11 07:51:09;;;;;;;0.85;0.65;;;;;;;17.00;100.00;101699.44;7399195;19;20046;-86
2023/02/11 07:53:35;;;;;;;0.13;0.13;;;;;;;15.07;100.00;101709.53;7394113;19;20473;-87
2023/02/11 07:56:04;;;;;;;0.22;0.22;;;;;;;15.07;100.00;101704.69;7395208;19;20022;-86
2023/02/11 07:58:30;;;;;;;1.20;0.50;;;;;;;16.84;100.00;101702.63;7396146;19;20039;-86
2023/02/11 08:01:02;;;;;;;0.30;0.13;;;;;;;15.37;100.00;101705.09;7399457;19;20039;-86
2023/02/11 08:03:28;;;;;;;0.32;0.08;;;;;;;20.12;95.46;101694.03;7392632;19;20023;-86
2023/02/11 08:05:55;;;;;;;0.98;0.50;;;;;;;20.05;84.91;101711.41;7396389;19;20026;-86
2023/02/11 08:08:21;;;;;;;0.40;0.30;;;;;;;17.98;91.97;101705.75;7398421;19;20019;-86
2023/02/11 08:10:47;;;;;;;0.47;0.28;;;;;;;14.69;100.00;101721.03;7398268;19;20018;-84
2023/02/11 08:13:13;;;;;;;0.40;0.40;;;;;;;14.03;100.00;101721.47;7392380;19;20477;-84
2023/02/11 08:15:39;;;;;;;2.05;0.30;;;;;;;13.94;100.00;101715.78;7392670;19;20015;-84
2023/02/11 08:18:06;;;;;;;0.63;0.47;;;;;;;14.02;100.00;101719.88;7392197;19;20010;-84
2023/02/11 08:20:32;;;;;;;0.28;0.17;;;;;;;13.78;100.00;101710.31;7397343;19;20039;-84
2023/02/11 08:22:58;;;;;;;0.43;0.25;;;;;;;13.65;100.00;101708.34;7393705;19;20023;-84
2023/02/11 08:25:24;;;;;;;1.00;0.30;;;;;;;13.43;100.00;101713.09;7394532;19;20026;-85
2023/02/11 08:27:50;;;;;;;0.22;0.03;;;;;;;13.64;100.00;101712.38;7397361;19;20047;-82
2023/02/11 08:30:17;;;;;;;3.80;0.30;;;;;;;14.65;100.00;101711.97;7396425;19;20081;-83
2023/02/11 08:32:43;;;;;;;0.28;0.20;;;;;;;14.37;100.00;101719.44;7397377;19;20342;-86
2023/02/11 08:35:11;;;;;;;0.10;0.10;;;;;;;14.35;100.00;101721.13;7399309;19;20022;-85
2023/02/11 08:37:37;;;;;;;0.40;0.10;;;;;;;14.34;100.00;101719.53;7394325;19;20022;-84
2023/02/11 08:40:04;;;;;;;4.30;0.52;;;;;;;14.44;100.00;101724.00;7395540;19;20017;-85
2023/02/11 08:42:30;;;;;;;2.10;0.55;;;;;;;14.49;100.00;101731.03;7396530;19;20038;-85
2023/02/11 08:44:56;;;;;;;0.20;0.20;;;;;;;14.68;100.00;101727.88;7392684;19;20094;-85
2023/02/11 08:47:23;;;;;;;0.10;0.10;;;;;;;14.48;100.00;101733.06;7394558;19;20014;-86
2023/02/11 08:49:49;;;;;;;0.30;0.20;;;;;;;14.41;100.00;101725.69;7397964;19;20030;-84
2023/02/11 08:52:15;;;;;;;4.30;0.75;;;;;;;14.27;100.00;101731.00;7392530;19;20022;-84
2023/02/11 08:54:41;;;;;;;1.17;0.63;;;;;;;14.21;100.00;101738.41;7390219;19;20063;-85
2023/02/11 08:57:08;;;;;;;0.55;0.10;;;;;;;14.30;100.00;101742.09;7394949;19;20357;-84
2023/02/11 08:59:34;;;;;;;0.85;0.38;;;;;;;14.46;100.00;101745.94;7392257;19;20014;-86
2023/02/11 09:02:00;;;;;;;2.03;0.65;;;;;;;14.45;100.00;101739.56;7398279;19;20022;-86
2023/02/11 09:04:26;;;;;;;0.40;0.40;;;;;;;14.52;100.00;101730.88;7392202;19;20026;-86
2023/02/11 09:06:52;;;;;;;0.30;0.20;;;;;;;14.35;100.00;101729.53;7398407;19;20010;-86
2023/02/11 09:09:19;;;;;;;0.20;0.20;;;;;;;15.22;100.00;101726.59;7394769;19;20018;-86
2023/02/11 09:11:45;;;;;;;0.20;0.20;;;;;;;15.71;100.00;101724.56;7393784;19;20090;-86
2023/02/11 09:14:18;;;;;;;0.17;0.17;;;;;;;16.35;100.00;101714.88;7394243;19;20078;-86
2023/02/11 09:16:44;;;;;;;0.30;0.30;;;;;;;15.58;100.00;101732.31;7393121;19;20158;-86
2023/02/11 09:19:10;;;;;;;1.45;0.65;;;;;;;16.17;100.00;101723.34;7396423;19;20029;-85
2023/02/11 09:21:37;;;;;;;3.75;1.27;;;;;;;19.19;100.00;101728.97;7391853;19;20387;-85
2023/02/11 09:24:05;;;;;;;1.00;0.20;;;;;;;16.93;100.00;101739.19;7392115;19;20053;-85
2023/02/11 09:26:34;;;;;;;1.80;0.30;;;;;;;16.46;100.00;101740.50;7391743;19;20014;-86
2023/02/11 09:29:00;;;;;;;0.45;0.45;;;;;;;15.54;100.00;101743.72;7392981;19;20430;-83
2023/02/11 09:31:29;;;;;;;0.10;0.10;;;;;;;16.12;100.00;101738.00;7394493;19;20015;-85
2023/02/11 09:33:59;;;;;;;0.40;0.40;;;;;;;23.00;75.15;101732.59;7388802;19;20494;-85
2023/02/11 09:36:32;;;;;;;0.80;0.45;;;;;;;18.89;86.32;101738.75;7394956;19;20023;-85
2023/02/11 09:39:00;;;;;;;0.30;0.20;;;;;;;16.02;100.00;101756.13;7390938;19;20022;-85
2023/02/11 09:41:41;;;;;;;0.10;0.10;;;;;;;15.41;100.00;101762.69;7390639;19;20019;-85
2023/02/11 09:44:17;;;;;;;3.03;0.77;;;;;;;15.28;100.00;101767.63;7390453;19;20039;-85
2023/02/11 09:46:52;;;;;;;0.68;0.50;;;;;;;15.59;100.00;101764.78;7389006;19;20016;-85
2023/02/11 09:49:23;;;;;;;1.67;0.55;;;;;;;16.15;100.00;101767.22;7390235;19;20094;-85
2023/02/11 09:52:00;;;;;;;0.40;0.10;;;;;;;17.15;100.00;101763.00;7389480;19;20052;-85
2023/02/11 09:54:49;;;;;;;0.40;0.15;;;;;;;15.95;100.00;101764.88;7391074;19;20051;-83
2023/02/11 09:57:16;;;;;;;0.10;0.10;;;;;;;16.12;100.00;101757.69;7389112;19;20018;-83
2023/02/11 09:59:42;;;;;;;0.10;0.00;;;;;;;15.97;100.00;101759.56;7390895;19;20006;-82
2023/02/11 10:02:28;;;;;;;0.00;0.00;;;;;;;15.86;100.00;101756.41;7389839;19;20022;-83
2023/02/11 10:05:22;;;;;;;0.57;0.43;;;;;;;15.89;100.00;101755.50;7390547;19;20021;-84
2023/02/11 10:08:24;;;;;;;0.30;0.20;;;;;;;17.03;100.00;101746.34;7391119;19;20022;-82
2023/02/11 10:11:47;;;;;;;0.10;0.10;;;;;;;17.15;100.00;101751.00;7392874;19;20023;-83
2023/02/11 10:14:32;;;;;;;0.10;0.00;;;;;;;19.50;83.80;101759.53;7388414;19;20028;-83
2023/02/11 10:17:07;;;;;;;0.10;0.10;;;;;;;17.72;94.55;101765.91;7386944;19;20499;-83
2023/02/11 10:19:55;;;;;;;0.10;0.00;;;;;;;17.64;89.70;101759.84;7391700;19;20588;-82
2023/02/11 10:22:31;;;;;;;0.20;0.13;;;;;;;16.38;100.00;101773.00;7391906;19;20114;-83
2023/02/11 10:24:59;;;;;;;1.00;0.57;;;;;;;16.89;100.00;101767.47;7388740;19;20018;-83
2023/02/11 10:27:31;;;;;;;0.10;0.00;;;;;;;16.37;100.00;101771.44;7391167;19;20022;-83
2023/02/11 10:30:23;;;;;;;0.20;0.20;;;;;;;16.63;100.00;101761.44;7393964;19;20015;-85
2023/02/11 10:33:01;;;;;;;0.10;0.10;;;;;;;16.73;100.00;101765.03;7387764;19;20015;-84
2023/02/11 10:35:27;;;;;;;0.20;0.10;;;;;;;20.47;84.62;101768.25;7394183;19;20014;-84
2023/02/11 10:37:54;;;;;;;0.10;0.10;;;;;;;17.53;96.75;101779.31;7391411;19;20018;-82
2023/02/11 10:40:29;;;;;;;0.28;0.17;;;;;;;19.21;88.02;101776.53;7394435;19;20047;-84
2023/02/11 10:42:59;;;;;;;1.42;0.10;;;;;;;18.56;91.33;101767.16;7395943;19;20019;-84
2023/02/11 10:45:37;;;;;;;0.20;0.10;;;;;;;17.52;93.82;101772.13;7390822;19;20531;-84
2023/02/11 10:48:05;;;;;;;0.57;0.20;;;;;;;19.67;86.93;101766.19;7390969;19;20015;-84
2023/02/11 10:50:33;;;;;;;0.20;0.20;;;;;;;18.31;84.37;101772.53;7392295;19;20021;-85
2023/02/11 10:53:23;;;;;;;1.98;0.10;;;;;;;18.24;92.31;101778.53;7390409;19;20023;-84
2023/02/11 10:55:56;;;;;;;0.10;0.00;;;;;;;19.07;82.05;101772.44;7390399;19;20486;-83
2023/02/11 10:58:30;;;;;;;0.55;0.20;;;;;;;21.51;72.29;101776.16;7390240;19;20011;-83
2023/02/11 11:00:59;;;;;;;0.45;0.10;;;;;;;19.57;78.38;101776.88;7394520;19;20015;-84
2023/02/11 11:03:31;;;;;;;0.40;0.20;;;;;;;26.94;59.53;101757.47;7387787;19;20698;-84
2023/02/11 11:06:00;;;;;;;0.85;0.50;;;;;;;18.25;80.97;101780.09;7388569;19;20370;-84
2023/02/11 11:08:56;;;;;;;0.95;0.73;;;;;;;16.45;98.96;101775.50;7394107;19;20496;-84
2023/02/11 11:11:24;;;;;;;0.50;0.40;;;;;;;16.50;100.00;101774.88;7390737;19;20461;-83
2023/02/11 11:14:02;;;;;;;0.43;0.43;;;;;;;19.66;90.40;101767.47;7388948;19;20037;-84
2023/02/11 11:16:31;;;;;;;0.28;0.28;;;;;;;20.62;81.81;101768.16;7387910;19;20007;-80
2023/02/11 11:19:06;;;;;;;2.40;1.10;;;;;;;25.41;66.53;101756.81;7388282;19;20047;-82
2023/02/11 11:21:51;;;;;;;0.40;0.40;;;;;;;27.00;56.57;101761.03;7389740;19;20018;-83
2023/02/11 11:24:25;;;;;;;0.73;0.45;;;;;;;26.04;56.97;101762.09;7389698;19;20024;-83
2023/02/11 11:26:57;;;;;;;3.08;0.52;;;;;;;26.09;56.00;101778.44;7389250;19;20040;-81
2023/02/11 11:29:26;;;;;;;1.42;0.35;;;;;;;27.64;51.52;101778.09;7388784;19;20021;-82
2023/02/11 11:31:56;;;;;;;1.88;0.45;;;;;;;27.91;48.71;101765.34;7388884;19;20018;-82
2023/02/11 11:34:32;;;;;;;0.63;0.53;;;;;;;23.72;52.60;101770.25;7388825;19;20480;-82
2023/02/11 11:37:08;;;;;;;2.20;1.10;;;;;;;26.92;49.59;101751.50;7389431;19;20248;-83
2023/02/11 11:39:34;;;;;;;2.25;0.63;;;;;;;27.95;48.00;101745.72;7390379;19;20022;-83